Aérodrome :
LOGIN :

S'inscrire | Disclaimer

   EN    FR    IT 

 










Légende :    VFR   VFR Marginal   IFR   IFR Intensif   IFR Très Intensif
Visi : 
Plafond : 
>= 8 km
>= 3000ft
5 à 8 km
1000 à 3000 ft
1500m à 5 km
500 à 1000 ft
800 à 1500m
200 à 500 ft
< 800m
< 200 ft
Symboles :   Orages  Brouillard  Fortes neiges  Fortes précipitations  Vent > 20 kt
SIGMETs :   Divers  Orages  Givrage  Turbulence  Onde Orograph.  Cendres Volcan.







- Altitude de l'aérodrome : 245 ft
- Code IATA : BIQ
- Voir les cartes d'approche


LFBZ - Biarritz

DERNIER METAR :
  • 190130Z AUTO 22005KT 190V260 6000 -RA SCT022/// BKN027/// BKN036/// ///TCU 07/06 Q1015 TEMPO 4000 -RA BKN014

METARs EXPIRÉS :
  • 190100Z AUTO 24004KT 9999 -RA BKN041/// BKN049/// OVC060/// ///TCU 07/06 Q1015 TEMPO 4000 -RA BKN014
  • 190030Z AUTO 23004KT 9999 -RA BKN056/// BKN068/// BKN080/// ///TCU 07/05 Q1015 TEMPO 4000 -RA BKN014
  • 190000Z AUTO 23004KT 9999 RA SCT054/// SCT066/// BKN076/// ///TCU 07/04 Q1016 TEMPO 4000 -RA BKN014
  • 182330Z AUTO 20002KT 9999 FEW042/// SCT058/// BKN074/// ///TCU 07/04 Q1016 TEMPO 4000 -RA BKN014
  • 182300Z AUTO 20003KT CAVOK 06/04 Q1016 NOSIG

TAF TAF LFBZ
Valide du 19 à 00h jusqu'au 20 à 00h UTC


182300Z 1900/1924 20005KT 9999 BKN030
PROB30
TEMPO 1900/1908 4000 -RA BKN014
PROB30
TEMPO 1908/1912 4000 SHRA BKN020TCU
TEMPO 1921/1924 -RA
Pas de NOTAMs connus pour ce terrain.



MET'MAP, la Météo Aéronautique d'un coup d'oeil ! - Copyright ORBIFLY Décembre 2007 - Disclaimer

ORBIFLY MET'MAP TEAM :

Programmation & Développement : Alexandra Zaïnal
Conception & Développement : Baudouin d'Aumeries
Co-Programmation & Développement : Marc-Olivier Méhu
Soutien technique & logistique : Manuel Goepfert

Contact : metmap@orbifly.com




SOURCES & CREDITS :

   NOAA